createdAt,value
2018-07-20T00:02:25.491Z,16.10
2018-07-20T00:05:29.568Z,16.07
2018-07-20T00:08:33.927Z,16.08
2018-07-20T00:11:38.566Z,16.05
2018-07-20T00:14:43.313Z,16.03
2018-07-20T00:17:48.129Z,16.01
2018-07-20T00:20:53.118Z,15.99
2018-07-20T00:23:57.629Z,15.97
2018-07-20T00:27:02.077Z,15.97
2018-07-20T00:30:06.866Z,15.90
2018-07-20T00:33:11.273Z,15.81
2018-07-20T00:36:16.569Z,15.82
2018-07-20T00:39:21.393Z,15.81
2018-07-20T00:42:25.782Z,15.74
2018-07-20T00:45:29.793Z,15.77
2018-07-20T00:48:34.078Z,15.74
2018-07-20T00:51:38.458Z,15.70
2018-07-20T00:54:42.784Z,15.70
2018-07-20T00:57:47.112Z,15.69
2018-07-20T01:00:51.787Z,15.67
2018-07-20T01:03:55.849Z,15.70
2018-07-20T01:07:00.166Z,15.66
2018-07-20T01:10:04.469Z,15.63
2018-07-20T01:13:08.771Z,15.61
2018-07-20T01:16:13.133Z,15.59
2018-07-20T01:19:17.458Z,15.56
2018-07-20T01:22:22.202Z,15.57
2018-07-20T01:25:26.757Z,15.53
2018-07-20T01:28:31.068Z,15.50
2018-07-20T01:31:35.630Z,15.48
2018-07-20T01:34:40.160Z,15.45
2018-07-20T01:37:44.438Z,15.46
2018-07-20T01:40:48.783Z,15.41
2018-07-20T01:43:53.104Z,15.39
2018-07-20T01:46:57.435Z,15.33
2018-07-20T01:50:01.686Z,15.30
2018-07-20T01:53:05.934Z,15.23
2018-07-20T01:56:10.297Z,15.17
2018-07-20T01:59:14.571Z,15.17
2018-07-20T02:02:18.838Z,15.17
2018-07-20T02:05:23.104Z,15.09
2018-07-20T02:08:27.400Z,15.11
2018-07-20T02:11:31.968Z,15.06
2018-07-20T02:14:36.261Z,15.02
2018-07-20T02:17:40.831Z,14.96
2018-07-20T02:20:45.150Z,14.90
2018-07-20T02:23:49.444Z,14.93
2018-07-20T02:26:54.001Z,14.90
2018-07-20T02:29:58.279Z,14.90
2018-07-20T02:33:02.558Z,14.86
2018-07-20T02:36:06.891Z,14.85
2018-07-20T02:39:13.211Z,14.82
2018-07-20T02:42:17.497Z,14.78
2018-07-20T02:45:21.536Z,14.73
2018-07-20T02:48:26.363Z,14.72
2018-07-20T02:51:30.662Z,14.67
2018-07-20T02:54:35.085Z,14.65
2018-07-20T02:57:39.364Z,14.58
2018-07-20T03:00:43.742Z,14.54
2018-07-20T03:03:48.009Z,14.54
2018-07-20T03:06:52.342Z,14.47
2018-07-20T03:09:56.617Z,14.43
2018-07-20T03:13:00.945Z,14.41
2018-07-20T03:16:05.340Z,14.47
2018-07-20T03:19:09.973Z,14.44
2018-07-20T03:22:14.446Z,14.44
2018-07-20T03:25:18.772Z,14.38
2018-07-20T03:28:23.092Z,14.36
2018-07-20T03:31:27.684Z,14.30
2018-07-20T03:34:32.009Z,14.30
2018-07-20T03:37:36.511Z,14.28
2018-07-20T03:40:41.130Z,14.30
2018-07-20T03:43:45.415Z,14.28
2018-07-20T03:46:49.686Z,14.29
2018-07-20T03:49:54.523Z,14.33
2018-07-20T03:52:58.870Z,14.29
2018-07-20T03:56:03.253Z,14.34
2018-07-20T03:59:07.455Z,14.33
2018-07-20T04:02:11.762Z,14.35
2018-07-20T04:05:16.086Z,14.35
2018-07-20T04:08:20.396Z,14.39
2018-07-20T04:11:24.936Z,14.54
2018-07-20T04:14:29.281Z,14.62
2018-07-20T04:17:38.949Z,14.68
2018-07-20T04:20:43.283Z,14.71
2018-07-20T04:23:47.563Z,14.75
2018-07-20T04:26:52.494Z,14.73
2018-07-20T04:29:56.890Z,14.84
2018-07-20T04:33:02.273Z,15.08
2018-07-20T04:36:06.912Z,15.27
2018-07-20T04:39:13.510Z,15.32
2018-07-20T04:42:18.863Z,15.39
2018-07-20T04:45:23.161Z,15.50
2018-07-20T04:48:27.706Z,15.56
2018-07-20T04:51:32.348Z,15.71
2018-07-20T04:54:36.730Z,15.80
2018-07-20T04:57:41.214Z,15.88
2018-07-20T05:00:45.619Z,16.02
2018-07-20T05:03:50.587Z,16.23
2018-07-20T05:06:55.741Z,16.41
2018-07-20T05:10:00.168Z,16.62
2018-07-20T05:13:18.060Z,16.74
2018-07-20T05:16:22.377Z,16.86
2018-07-20T05:19:26.785Z,16.96
2018-07-20T05:22:31.146Z,16.95
2018-07-20T05:25:35.653Z,17.13
2018-07-20T05:28:39.980Z,17.20
2018-07-20T05:31:44.258Z,17.23
2018-07-20T05:34:49.106Z,17.36
2018-07-20T05:37:53.864Z,17.52
2018-07-20T05:40:58.361Z,17.59
2018-07-20T05:44:02.745Z,17.78
2018-07-20T05:47:07.658Z,17.85
2018-07-20T05:50:12.018Z,18.07
2018-07-20T05:53:16.423Z,18.67
2018-07-20T05:56:20.762Z,19.38
2018-07-20T05:59:25.565Z,19.54
2018-07-20T06:02:30.173Z,20.09
2018-07-20T06:05:34.992Z,21.07
2018-07-20T06:08:39.429Z,22.10
2018-07-20T06:11:43.690Z,23.55
2018-07-20T06:14:47.953Z,23.91
2018-07-20T06:17:52.380Z,24.78
2018-07-20T06:20:56.654Z,25.49
2018-07-20T06:24:01.855Z,26.14
2018-07-20T06:27:06.185Z,26.64
2018-07-20T06:30:10.506Z,26.08
2018-07-20T06:33:16.772Z,26.62
2018-07-20T06:36:21.277Z,27.39
2018-07-20T06:39:25.860Z,28.03
2018-07-20T06:42:30.249Z,28.44
2018-07-20T06:45:34.984Z,27.72
2018-07-20T06:48:39.262Z,27.74
2018-07-20T06:51:43.779Z,28.27
2018-07-20T06:54:48.313Z,28.26
2018-07-20T06:57:53.175Z,28.60
2018-07-20T07:00:57.784Z,27.18
2018-07-20T07:04:02.375Z,27.75
2018-07-20T07:07:07.918Z,27.90
2018-07-20T07:10:12.276Z,28.02
2018-07-20T07:13:16.782Z,27.79
2018-07-20T07:16:21.140Z,27.29
2018-07-20T07:19:25.529Z,26.46
2018-07-20T07:22:29.872Z,27.59
2018-07-20T07:25:34.268Z,27.38
2018-07-20T07:28:38.659Z,27.19
2018-07-20T07:31:42.985Z,26.86
2018-07-20T07:34:47.806Z,26.43
2018-07-20T07:37:52.351Z,26.35
2018-07-20T07:40:56.685Z,26.20
2018-07-20T07:44:01.001Z,25.95
2018-07-20T07:47:05.481Z,26.15
2018-07-20T07:50:10.149Z,26.98
2018-07-20T07:53:14.452Z,27.01
2018-07-20T07:56:18.985Z,27.22
2018-07-20T07:59:23.863Z,26.58
2018-07-20T08:02:28.129Z,26.01
2018-07-20T08:05:32.428Z,26.21
2018-07-20T08:08:36.734Z,26.69
2018-07-20T08:11:41.506Z,26.85
2018-07-20T08:14:46.358Z,27.15
2018-07-20T08:17:50.713Z,27.15
2018-07-20T08:20:55.186Z,27.31
2018-07-20T08:23:59.609Z,27.70
2018-07-20T08:27:03.886Z,27.01
2018-07-20T08:30:08.154Z,27.28
2018-07-20T08:33:12.465Z,26.51
2018-07-20T08:36:16.945Z,26.46
2018-07-20T08:39:21.229Z,25.91
2018-07-20T08:42:25.933Z,26.02
2018-07-20T08:45:30.321Z,26.29
2018-07-20T08:48:34.838Z,26.35
2018-07-20T08:51:39.301Z,26.87
2018-07-20T08:54:43.578Z,26.68
2018-07-20T08:57:48.057Z,26.65
2018-07-20T09:00:52.410Z,26.75
2018-07-20T09:03:56.666Z,27.11
2018-07-20T09:07:01.261Z,27.61
2018-07-20T09:10:05.893Z,27.69
2018-07-20T09:13:10.231Z,27.94
2018-07-20T09:16:14.997Z,28.16
2018-07-20T09:19:19.393Z,28.42
2018-07-20T09:22:23.861Z,27.83
2018-07-20T09:25:28.181Z,27.30
2018-07-20T09:28:32.777Z,27.88
2018-07-20T09:31:37.202Z,27.82
2018-07-20T09:34:41.578Z,27.20
2018-07-20T09:37:46.096Z,27.05
2018-07-20T09:40:50.375Z,26.63
2018-07-20T09:43:54.670Z,27.07
2018-07-20T09:46:58.979Z,27.65
2018-07-20T09:50:03.410Z,28.16
2018-07-20T09:53:07.818Z,28.26
2018-07-20T09:56:12.220Z,28.06
2018-07-20T09:59:16.704Z,28.11
2018-07-20T10:02:21.182Z,28.37
2018-07-20T10:05:25.551Z,28.37
2018-07-20T10:08:30.116Z,28.01
2018-07-20T10:11:35.672Z,27.34
2018-07-20T10:14:39.888Z,27.86
2018-07-20T10:17:44.135Z,28.08
2018-07-20T10:20:48.426Z,27.58
2018-07-20T10:23:52.866Z,27.78
2018-07-20T10:26:57.176Z,28.42
2018-07-20T10:30:01.879Z,28.55
2018-07-20T10:33:06.242Z,28.55
2018-07-20T10:36:10.565Z,28.28
2018-07-20T10:39:14.645Z,27.99
2018-07-20T10:42:19.224Z,27.45
2018-07-20T10:45:23.697Z,28.03
2018-07-20T10:48:28.181Z,28.17
2018-07-20T10:51:32.476Z,28.31
2018-07-20T10:54:36.802Z,28.61
2018-07-20T10:57:41.049Z,28.11
2018-07-20T11:00:45.989Z,28.00
2018-07-20T11:03:50.296Z,28.14
2018-07-20T11:06:54.576Z,28.12
2018-07-20T11:09:58.919Z,27.82
2018-07-20T11:13:03.313Z,27.70
2018-07-20T11:16:07.769Z,27.83
2018-07-20T11:19:12.021Z,27.79
2018-07-20T11:22:16.478Z,27.63
2018-07-20T11:25:20.740Z,27.97
2018-07-20T11:28:25.185Z,28.06
2018-07-20T11:31:29.582Z,28.19
2018-07-20T11:34:33.960Z,27.99
2018-07-20T11:37:42.297Z,27.87
2018-07-20T11:40:46.845Z,27.93
2018-07-20T11:43:51.368Z,28.24
2018-07-20T11:46:55.818Z,28.15
2018-07-20T11:50:00.209Z,28.07
2018-07-20T11:53:05.090Z,28.29
2018-07-20T11:56:09.471Z,27.83
2018-07-20T11:59:14.279Z,28.24
2018-07-20T12:02:18.548Z,28.40
2018-07-20T12:05:23.369Z,28.35
2018-07-20T12:08:27.722Z,28.74
2018-07-20T12:11:32.577Z,28.88
2018-07-20T12:14:36.830Z,29.37
2018-07-20T12:17:41.291Z,29.63
2018-07-20T12:20:46.013Z,29.90
2018-07-20T12:23:50.287Z,29.42
2018-07-20T12:26:54.721Z,29.80
2018-07-20T12:29:59.366Z,29.30
2018-07-20T12:33:04.078Z,29.00
2018-07-20T12:36:08.416Z,29.42
2018-07-20T12:39:13.060Z,29.89
2018-07-20T12:42:17.340Z,29.28
2018-07-20T12:45:21.908Z,29.28
2018-07-20T12:48:26.301Z,29.12
2018-07-20T12:51:30.729Z,29.02
2018-07-20T12:54:35.292Z,29.11
2018-07-20T12:57:39.766Z,28.34
2018-07-20T13:00:44.442Z,28.64
2018-07-20T13:03:49.328Z,29.01
2018-07-20T13:06:53.762Z,28.72
2018-07-20T13:09:58.281Z,28.17
2018-07-20T13:13:02.535Z,28.37
2018-07-20T13:16:06.976Z,28.47
2018-07-20T13:19:11.241Z,28.87
2018-07-20T13:22:15.521Z,28.63
2018-07-20T13:25:19.794Z,29.04
2018-07-20T13:28:24.085Z,29.22
2018-07-20T13:31:28.381Z,29.03
2018-07-20T13:34:32.737Z,29.17
2018-07-20T13:37:37.285Z,29.72
2018-07-20T13:40:41.882Z,29.21
2018-07-20T13:43:46.137Z,29.18
2018-07-20T13:46:50.430Z,29.20
2018-07-20T13:49:54.984Z,28.57
2018-07-20T13:52:59.669Z,28.69
2018-07-20T13:56:03.982Z,29.28
2018-07-20T13:59:09.241Z,29.54
2018-07-20T14:02:19.344Z,29.77
2018-07-20T14:05:23.950Z,29.39
2018-07-20T14:08:28.412Z,29.03
2018-07-20T14:11:33.186Z,28.51
2018-07-20T14:14:37.646Z,28.59
2018-07-20T14:17:42.754Z,28.69
2018-07-20T14:20:47.418Z,28.48
2018-07-20T14:23:51.978Z,28.47
2018-07-20T14:26:56.096Z,28.46
2018-07-20T14:30:00.451Z,28.39
2018-07-20T14:33:04.894Z,28.38
2018-07-20T14:36:09.232Z,28.61
2018-07-20T14:39:14.906Z,28.83
2018-07-20T14:42:19.872Z,28.87
2018-07-20T14:45:27.977Z,28.92
2018-07-20T14:48:34.868Z,28.94
2018-07-20T14:51:40.520Z,28.65
2018-07-20T14:54:47.759Z,28.53
2018-07-20T14:57:55.608Z,28.37
2018-07-20T15:01:00.969Z,28.33
2018-07-20T15:04:06.367Z,28.17
2018-07-20T15:07:11.301Z,27.99
2018-07-20T15:10:16.801Z,28.02
2018-07-20T15:13:21.304Z,28.21
2018-07-20T15:16:25.814Z,28.57
2018-07-20T15:19:30.235Z,28.96
2018-07-20T15:22:35.439Z,28.62
2018-07-20T15:25:39.773Z,28.66
2018-07-20T15:28:44.175Z,28.53
2018-07-20T15:31:49.370Z,28.56
2018-07-20T15:34:53.835Z,28.15
2018-07-20T15:37:58.952Z,27.89
2018-07-20T15:41:04.095Z,27.74
2018-07-20T15:44:08.580Z,27.88
2018-07-20T15:47:13.362Z,27.89
2018-07-20T15:50:21.357Z,28.20
2018-07-20T15:53:36.269Z,28.28
2018-07-20T15:56:34.513Z,28.34
2018-07-20T15:59:39.573Z,28.23
2018-07-20T16:02:44.858Z,28.15
2018-07-20T16:05:55.129Z,28.10
2018-07-20T16:09:01.891Z,28.16
2018-07-20T16:12:09.161Z,28.54
2018-07-20T16:15:17.518Z,28.48
2018-07-20T16:18:24.988Z,28.24
2018-07-20T16:21:36.588Z,28.13
2018-07-20T16:24:51.165Z,28.14
2018-07-20T16:27:56.717Z,28.28
2018-07-20T16:31:05.644Z,28.31
2018-07-20T16:34:14.913Z,28.28
2018-07-20T16:37:25.830Z,28.34
2018-07-20T16:40:33.712Z,28.13
2018-07-20T16:43:44.116Z,28.21
2018-07-20T16:46:56.030Z,28.03
2018-07-20T16:50:05.266Z,27.99
2018-07-20T16:53:15.935Z,28.11
2018-07-20T16:56:21.245Z,28.49
2018-07-20T16:59:31.029Z,28.60
2018-07-20T17:02:40.805Z,28.60
2018-07-20T17:05:49.607Z,28.71
2018-07-20T17:09:02.217Z,28.59
2018-07-20T17:12:09.699Z,28.03
2018-07-20T17:15:13.952Z,27.81
2018-07-20T17:18:18.368Z,27.64
2018-07-20T17:21:22.806Z,27.70
2018-07-20T17:24:27.096Z,27.66
2018-07-20T17:27:31.476Z,27.34
2018-07-20T17:30:35.921Z,27.12
2018-07-20T17:33:40.504Z,27.00
2018-07-20T17:36:44.790Z,26.74
2018-07-20T17:39:49.265Z,26.77
2018-07-20T17:42:53.602Z,26.70
2018-07-20T17:45:57.940Z,26.63
2018-07-20T17:49:02.360Z,26.56
2018-07-20T17:52:06.686Z,26.57
2018-07-20T17:55:10.956Z,26.54
2018-07-20T17:58:15.395Z,26.50
2018-07-20T18:01:19.735Z,26.47
2018-07-20T18:04:24.627Z,26.40
2018-07-20T18:07:28.998Z,26.21
2018-07-20T18:10:33.316Z,26.09
2018-07-20T18:13:37.565Z,25.98
2018-07-20T18:16:41.989Z,25.92
2018-07-20T18:19:46.357Z,25.81
2018-07-20T18:22:50.785Z,25.64
2018-07-20T18:25:55.073Z,25.58
2018-07-20T18:28:59.325Z,25.54
2018-07-20T18:32:03.653Z,25.45
2018-07-20T18:35:08.046Z,25.36
2018-07-20T18:38:12.502Z,25.25
2018-07-20T18:41:16.785Z,25.12
2018-07-20T18:44:21.116Z,25.02
2018-07-20T18:47:25.172Z,24.83
2018-07-20T18:50:29.749Z,24.69
2018-07-20T18:53:34.107Z,24.57
2018-07-20T18:56:38.368Z,24.43
2018-07-20T18:59:42.730Z,24.26
2018-07-20T19:02:47.118Z,24.19
2018-07-20T19:05:51.410Z,24.10
2018-07-20T19:08:55.816Z,23.99
2018-07-20T19:12:00.136Z,23.91
2018-07-20T19:15:05.878Z,23.79
2018-07-20T19:18:10.390Z,23.67
2018-07-20T19:21:14.650Z,23.57
2018-07-20T19:24:18.966Z,23.52
2018-07-20T19:27:23.251Z,23.47
2018-07-20T19:30:27.548Z,23.47
2018-07-20T19:33:32.133Z,23.37
2018-07-20T19:36:36.383Z,23.36
2018-07-20T19:39:40.668Z,23.32
2018-07-20T19:42:45.190Z,23.21
2018-07-20T19:45:49.583Z,23.17
2018-07-20T19:48:53.933Z,22.99
2018-07-20T19:51:58.141Z,23.00
2018-07-20T19:55:02.526Z,22.97
2018-07-20T19:58:07.018Z,22.97
2018-07-20T20:01:11.453Z,22.98
2018-07-20T20:04:15.797Z,22.94
2018-07-20T20:07:20.277Z,22.91
2018-07-20T20:10:24.489Z,22.94
2018-07-20T20:13:28.899Z,22.86
2018-07-20T20:16:36.042Z,22.91
2018-07-20T20:19:40.573Z,22.95
2018-07-20T20:22:45.684Z,22.93
2018-07-20T20:25:49.963Z,22.98
2018-07-20T20:28:54.276Z,23.06
2018-07-20T20:31:58.741Z,22.92
2018-07-20T20:35:02.893Z,22.91
2018-07-20T20:38:07.479Z,22.90
2018-07-20T20:41:12.143Z,22.86
2018-07-20T20:44:16.540Z,22.81
2018-07-20T20:47:20.883Z,22.78
2018-07-20T20:50:25.202Z,22.81
2018-07-20T20:53:29.529Z,22.71
2018-07-20T20:56:33.853Z,22.66
2018-07-20T20:59:38.474Z,22.65
2018-07-20T21:02:42.792Z,22.62
2018-07-20T21:05:46.972Z,22.64
2018-07-20T21:08:51.535Z,22.65
2018-07-20T21:11:56.376Z,22.53
2018-07-20T21:15:00.669Z,22.47
2018-07-20T21:18:05.539Z,22.50
2018-07-20T21:21:09.966Z,22.40
2018-07-20T21:24:14.496Z,22.42
2018-07-20T21:27:19.225Z,22.36
2018-07-20T21:30:24.093Z,22.32
2018-07-20T21:33:28.876Z,22.30
2018-07-20T21:36:32.899Z,22.15
2018-07-20T21:39:38.856Z,22.06
2018-07-20T21:42:43.096Z,21.84
2018-07-20T21:45:47.654Z,21.44
2018-07-20T21:48:52.047Z,21.03
2018-07-20T21:51:56.327Z,20.96
2018-07-20T21:55:01.038Z,20.79
2018-07-20T21:58:06.059Z,20.81
2018-07-20T22:01:10.710Z,20.81
2018-07-20T22:04:15.330Z,20.73
2018-07-20T22:07:19.669Z,20.58
2018-07-20T22:10:24.128Z,20.42
2018-07-20T22:13:28.884Z,20.27
2018-07-20T22:16:33.225Z,20.34
2018-07-20T22:19:46.683Z,20.25
2018-07-20T22:23:12.570Z,20.18
2018-07-20T22:26:17.023Z,20.16
2018-07-20T22:29:21.509Z,20.18
2018-07-20T22:32:25.854Z,20.08
2018-07-20T22:35:30.528Z,19.90
2018-07-20T22:38:34.972Z,19.85
2018-07-20T22:41:39.427Z,19.76
2018-07-20T22:44:43.956Z,19.55
2018-07-20T22:47:48.441Z,19.50
2018-07-20T22:50:53.006Z,19.37
2018-07-20T22:53:57.589Z,19.39
2018-07-20T22:57:02.021Z,19.23
2018-07-20T23:00:06.584Z,19.27
2018-07-20T23:03:11.086Z,19.16
2018-07-20T23:06:15.594Z,19.07
2018-07-20T23:09:19.928Z,19.15
2018-07-20T23:12:24.237Z,19.08
2018-07-20T23:15:29.087Z,19.07
2018-07-20T23:18:33.443Z,19.12
2018-07-20T23:21:40.174Z,19.03
2018-07-20T23:24:44.641Z,18.99
2018-07-20T23:27:49.009Z,18.87
2018-07-20T23:30:53.437Z,18.91
2018-07-20T23:33:57.728Z,18.94
2018-07-20T23:37:02.016Z,19.01
2018-07-20T23:40:06.716Z,18.94
2018-07-20T23:43:11.114Z,19.00
2018-07-20T23:46:15.144Z,19.01
2018-07-20T23:49:19.429Z,19.05
2018-07-20T23:52:23.887Z,19.10
2018-07-20T23:55:28.412Z,19.08
2018-07-20T23:58:32.742Z,19.05
